sensor_id;sensor_type;location;lat;lon;timestamp;pressure;altitude;pressure_sealevel;temperature;humidity
3812;BME280;1921;49.368;11.068;2024-03-02T00:00:19;96545.69;;;7.66;99.15
3812;BME280;1921;49.368;11.068;2024-03-02T00:02:49;96555.88;;;7.68;99.02
3812;BME280;1921;49.368;11.068;2024-03-02T00:05:17;96547.69;;;7.64;98.85
3812;BME280;1921;49.368;11.068;2024-03-02T00:07:46;96562.81;;;7.82;98.29
3812;BME280;1921;49.368;11.068;2024-03-02T00:10:18;96606.34;;;8.01;98.99
3812;BME280;1921;49.368;11.068;2024-03-02T00:12:47;96411.53;;;6.74;99.30
3812;BME280;1921;49.368;11.068;2024-03-02T00:15:55;96584.13;;;7.99;98.77
3812;BME280;1921;49.368;11.068;2024-03-02T00:18:33;96520.41;;;7.32;100.00
3812;BME280;1921;49.368;11.068;2024-03-02T00:21:00;96565.53;;;7.74;99.87
3812;BME280;1921;49.368;11.068;2024-03-02T00:23:33;96596.69;;;7.95;99.84
3812;BME280;1921;49.368;11.068;2024-03-02T00:26:00;96594.72;;;7.97;99.86
3812;BME280;1921;49.368;11.068;2024-03-02T00:28:35;96555.69;;;7.69;99.38
3812;BME280;1921;49.368;11.068;2024-03-02T00:31:12;96527.28;;;7.61;99.87
3812;BME280;1921;49.368;11.068;2024-03-02T00:33:46;96550.22;;;7.79;99.68
3812;BME280;1921;49.368;11.068;2024-03-02T00:36:27;96561.44;;;7.86;99.59
3812;BME280;1921;49.368;11.068;2024-03-02T00:38:54;96547.41;;;7.80;99.46
3812;BME280;1921;49.368;11.068;2024-03-02T00:41:32;96530.50;;;7.63;99.62
3812;BME280;1921;49.368;11.068;2024-03-02T00:44:05;96573.81;;;7.84;100.00
3812;BME280;1921;49.368;11.068;2024-03-02T00:46:42;96549.22;;;7.59;100.00
3812;BME280;1921;49.368;11.068;2024-03-02T00:49:23;96586.41;;;7.87;99.94
3812;BME280;1921;49.368;11.068;2024-03-02T00:51:53;96597.09;;;7.99;99.83
3812;BME280;1921;49.368;11.068;2024-03-02T00:54:25;96588.72;;;7.97;99.77
3812;BME280;1921;49.368;11.068;2024-03-02T00:56:55;96522.47;;;7.58;99.39
3812;BME280;1921;49.368;11.068;2024-03-02T00:59:22;96526.72;;;7.44;99.47
3812;BME280;1921;49.368;11.068;2024-03-02T01:01:49;96534.28;;;7.61;99.58
3812;BME280;1921;49.368;11.068;2024-03-02T01:04:15;96476.19;;;7.19;99.27
3812;BME280;1921;49.368;11.068;2024-03-02T01:06:42;96580.94;;;7.97;99.08
3812;BME280;1921;49.368;11.068;2024-03-02T01:09:09;96469.78;;;7.15;99.11
3812;BME280;1921;49.368;11.068;2024-03-02T01:11:34;96492.88;;;7.31;98.94
3812;BME280;1921;49.368;11.068;2024-03-02T01:14:00;96549.91;;;7.67;98.68
3812;BME280;1921;49.368;11.068;2024-03-02T01:16:26;96557.31;;;7.70;98.93
3812;BME280;1921;49.368;11.068;2024-03-02T01:18:51;96532.97;;;7.50;99.03
3812;BME280;1921;49.368;11.068;2024-03-02T01:21:17;96600.69;;;7.98;98.99
3812;BME280;1921;49.368;11.068;2024-03-02T01:23:43;96444.53;;;6.87;98.39
3812;BME280;1921;49.368;11.068;2024-03-02T01:26:09;96586.00;;;7.83;99.08
3812;BME280;1921;49.368;11.068;2024-03-02T01:28:35;96536.28;;;7.44;98.75
3812;BME280;1921;49.368;11.068;2024-03-02T01:31:00;96497.78;;;7.26;99.00
3812;BME280;1921;49.368;11.068;2024-03-02T01:33:27;96538.16;;;7.50;99.01
3812;BME280;1921;49.368;11.068;2024-03-02T01:35:53;96559.59;;;7.59;98.71
3812;BME280;1921;49.368;11.068;2024-03-02T01:38:19;96545.78;;;7.37;98.50
3812;BME280;1921;49.368;11.068;2024-03-02T01:40:45;96556.81;;;7.60;98.52
3812;BME280;1921;49.368;11.068;2024-03-02T01:43:11;96491.13;;;7.17;98.75
3812;BME280;1921;49.368;11.068;2024-03-02T01:45:37;96212.78;;;5.38;98.48
3812;BME280;1921;49.368;11.068;2024-03-02T01:48:05;96581.28;;;7.72;99.13
3812;BME280;1921;49.368;11.068;2024-03-02T01:50:33;96567.53;;;7.57;99.17
3812;BME280;1921;49.368;11.068;2024-03-02T01:53:00;96586.03;;;7.69;98.75
3812;BME280;1921;49.368;11.068;2024-03-02T01:55:26;96521.59;;;7.29;99.29
3812;BME280;1921;49.368;11.068;2024-03-02T01:57:54;96590.41;;;7.68;99.31
3812;BME280;1921;49.368;11.068;2024-03-02T02:00:21;96513.53;;;7.24;99.09
3812;BME280;1921;49.368;11.068;2024-03-02T02:02:48;96540.25;;;7.40;98.97
3812;BME280;1921;49.368;11.068;2024-03-02T02:05:14;96509.34;;;7.23;99.15
3812;BME280;1921;49.368;11.068;2024-03-02T02:07:43;96474.13;;;6.93;98.88
3812;BME280;1921;49.368;11.068;2024-03-02T02:10:10;96495.22;;;6.90;98.51
3812;BME280;1921;49.368;11.068;2024-03-02T02:12:36;96334.94;;;6.00;98.77
3812;BME280;1921;49.368;11.068;2024-03-02T02:15:03;96614.31;;;7.64;99.04
3812;BME280;1921;49.368;11.068;2024-03-02T02:17:29;96529.72;;;7.26;99.10
3812;BME280;1921;49.368;11.068;2024-03-02T02:19:55;96564.22;;;7.42;98.80
3812;BME280;1921;49.368;11.068;2024-03-02T02:22:20;96560.00;;;7.41;98.51
3812;BME280;1921;49.368;11.068;2024-03-02T02:24:46;96514.47;;;7.17;98.77
3812;BME280;1921;49.368;11.068;2024-03-02T02:27:12;96567.84;;;7.47;99.19
3812;BME280;1921;49.368;11.068;2024-03-02T02:29:41;96540.09;;;7.26;100.00
3812;BME280;1921;49.368;11.068;2024-03-02T02:32:07;96582.88;;;7.52;99.67
3812;BME280;1921;49.368;11.068;2024-03-02T02:34:33;96568.53;;;7.35;100.00
3812;BME280;1921;49.368;11.068;2024-03-02T02:36:59;96581.69;;;7.33;100.00
3812;BME280;1921;49.368;11.068;2024-03-02T02:39:25;96578.25;;;7.33;100.00
3812;BME280;1921;49.368;11.068;2024-03-02T02:41:51;96588.88;;;7.38;100.00
3812;BME280;1921;49.368;11.068;2024-03-02T02:44:16;96616.22;;;7.55;100.00
3812;BME280;1921;49.368;11.068;2024-03-02T02:46:42;96527.47;;;7.02;100.00
3812;BME280;1921;49.368;11.068;2024-03-02T02:49:08;96544.06;;;7.08;100.00
3812;BME280;1921;49.368;11.068;2024-03-02T02:51:34;96482.91;;;6.77;100.00
3812;BME280;1921;49.368;11.068;2024-03-02T02:53:59;96571.53;;;7.38;100.00
3812;BME280;1921;49.368;11.068;2024-03-02T02:56:25;96572.84;;;7.49;100.00
3812;BME280;1921;49.368;11.068;2024-03-02T02:58:51;96545.00;;;7.36;100.00
3812;BME280;1921;49.368;11.068;2024-03-02T03:01:17;96595.31;;;7.78;100.00
3812;BME280;1921;49.368;11.068;2024-03-02T03:03:44;96483.22;;;7.04;100.00
3812;BME280;1921;49.368;11.068;2024-03-02T03:06:10;96576.03;;;7.66;100.00
3812;BME280;1921;49.368;11.068;2024-03-02T03:08:36;96611.03;;;7.91;100.00
3812;BME280;1921;49.368;11.068;2024-03-02T03:11:02;96595.13;;;7.79;100.00
3812;BME280;1921;49.368;11.068;2024-03-02T03:13:27;96571.25;;;7.69;100.00
3812;BME280;1921;49.368;11.068;2024-03-02T03:15:53;96559.03;;;7.63;100.00
3812;BME280;1921;49.368;11.068;2024-03-02T03:18:19;96534.94;;;7.48;100.00
3812;BME280;1921;49.368;11.068;2024-03-02T03:20:45;96654.28;;;7.84;100.00
3812;BME280;1921;49.368;11.068;2024-03-02T03:23:11;96567.50;;;7.72;100.00
3812;BME280;1921;49.368;11.068;2024-03-02T03:25:41;96487.50;;;7.33;100.00
3812;BME280;1921;49.368;11.068;2024-03-02T03:28:07;96516.91;;;7.40;100.00
3812;BME280;1921;49.368;11.068;2024-03-02T03:30:37;96559.22;;;7.62;100.00
3812;BME280;1921;49.368;11.068;2024-03-02T03:33:04;96525.50;;;7.40;100.00
3812;BME280;1921;49.368;11.068;2024-03-02T03:35:32;96548.91;;;7.68;100.00
3812;BME280;1921;49.368;11.068;2024-03-02T03:37:57;96598.09;;;7.98;99.25
3812;BME280;1921;49.368;11.068;2024-03-02T03:40:24;96510.59;;;7.49;99.21
3812;BME280;1921;49.368;11.068;2024-03-02T03:42:49;96575.38;;;7.78;99.35
3812;BME280;1921;49.368;11.068;2024-03-02T03:45:16;96527.22;;;7.54;99.61
3812;BME280;1921;49.368;11.068;2024-03-02T03:47:42;96626.66;;;8.19;99.69
3812;BME280;1921;49.368;11.068;2024-03-02T03:50:08;96600.25;;;7.94;99.38
3812;BME280;1921;49.368;11.068;2024-03-02T03:52:33;96548.34;;;7.51;98.98
3812;BME280;1921;49.368;11.068;2024-03-02T03:55:00;96613.06;;;7.96;99.01
3812;BME280;1921;49.368;11.068;2024-03-02T03:57:26;96589.94;;;7.79;99.32
3812;BME280;1921;49.368;11.068;2024-03-02T03:59:52;96578.25;;;7.69;99.42
3812;BME280;1921;49.368;11.068;2024-03-02T04:02:18;96404.72;;;6.52;99.02
3812;BME280;1921;49.368;11.068;2024-03-02T04:04:44;96620.84;;;7.96;98.98
3812;BME280;1921;49.368;11.068;2024-03-02T04:07:10;96607.91;;;7.81;99.09
3812;BME280;1921;49.368;11.068;2024-03-02T04:09:35;96506.34;;;7.05;98.69
3812;BME280;1921;49.368;11.068;2024-03-02T04:12:01;96497.59;;;7.06;99.00
3812;BME280;1921;49.368;11.068;2024-03-02T04:14:27;96534.91;;;7.26;98.83
3812;BME280;1921;49.368;11.068;2024-03-02T04:16:52;96596.97;;;7.64;98.65
3812;BME280;1921;49.368;11.068;2024-03-02T04:19:18;96587.09;;;7.38;99.09
3812;BME280;1921;49.368;11.068;2024-03-02T04:21:44;96619.28;;;7.44;98.84
3812;BME280;1921;49.368;11.068;2024-03-02T04:24:10;96634.28;;;7.63;99.56
3812;BME280;1921;49.368;11.068;2024-03-02T04:26:35;96513.00;;;6.78;99.10
3812;BME280;1921;49.368;11.068;2024-03-02T04:29:01;96426.59;;;6.20;99.46
3812;BME280;1921;49.368;11.068;2024-03-02T04:31:27;96651.28;;;7.51;99.40
3812;BME280;1921;49.368;11.068;2024-03-02T04:33:53;96540.34;;;6.81;99.53
3812;BME280;1921;49.368;11.068;2024-03-02T04:36:19;96582.31;;;7.06;99.58
3812;BME280;1921;49.368;11.068;2024-03-02T04:38:46;96518.56;;;6.60;99.58
3812;BME280;1921;49.368;11.068;2024-03-02T04:41:12;96508.38;;;6.44;99.47
3812;BME280;1921;49.368;11.068;2024-03-02T04:43:38;96523.94;;;6.59;99.59
3812;BME280;1921;49.368;11.068;2024-03-02T04:46:04;96618.53;;;6.99;100.00
3812;BME280;1921;49.368;11.068;2024-03-02T04:48:31;96566.78;;;6.76;100.00
3812;BME280;1921;49.368;11.068;2024-03-02T04:50:56;96589.38;;;6.82;99.61
3812;BME280;1921;49.368;11.068;2024-03-02T04:53:22;96630.78;;;7.05;100.00
3812;BME280;1921;49.368;11.068;2024-03-02T04:55:48;96606.44;;;6.77;99.75
3812;BME280;1921;49.368;11.068;2024-03-02T04:58:19;96620.94;;;6.86;100.00
3812;BME280;1921;49.368;11.068;2024-03-02T05:00:45;96566.50;;;6.56;100.00
3812;BME280;1921;49.368;11.068;2024-03-02T05:03:12;96552.47;;;6.36;100.00
3812;BME280;1921;49.368;11.068;2024-03-02T05:05:38;96614.88;;;6.79;100.00
3812;BME280;1921;49.368;11.068;2024-03-02T05:08:04;96511.09;;;6.13;100.00
3812;BME280;1921;49.368;11.068;2024-03-02T05:10:30;96620.38;;;6.75;100.00
3812;BME280;1921;49.368;11.068;2024-03-02T05:12:56;96621.28;;;6.68;100.00
3812;BME280;1921;49.368;11.068;2024-03-02T05:15:22;96583.84;;;6.41;100.00
3812;BME280;1921;49.368;11.068;2024-03-02T05:17:48;96617.88;;;6.53;100.00
3812;BME280;1921;49.368;11.068;2024-03-02T05:20:14;96600.97;;;6.42;100.00
3812;BME280;1921;49.368;11.068;2024-03-02T05:22:39;96579.06;;;6.15;100.00
3812;BME280;1921;49.368;11.068;2024-03-02T05:25:06;96521.53;;;5.82;100.00
3812;BME280;1921;49.368;11.068;2024-03-02T05:27:32;96578.22;;;6.14;100.00
3812;BME280;1921;49.368;11.068;2024-03-02T05:29:59;96638.75;;;6.51;100.00
3812;BME280;1921;49.368;11.068;2024-03-02T05:32:25;96627.66;;;6.42;100.00
3812;BME280;1921;49.368;11.068;2024-03-02T05:34:52;96640.53;;;6.51;100.00
3812;BME280;1921;49.368;11.068;2024-03-02T05:37:18;96584.22;;;6.15;100.00
3812;BME280;1921;49.368;11.068;2024-03-02T05:39:44;96618.34;;;6.33;100.00
3812;BME280;1921;49.368;11.068;2024-03-02T05:42:10;96570.72;;;6.05;100.00
3812;BME280;1921;49.368;11.068;2024-03-02T05:44:38;96577.69;;;6.04;100.00
3812;BME280;1921;49.368;11.068;2024-03-02T05:47:05;96641.72;;;6.48;100.00
3812;BME280;1921;49.368;11.068;2024-03-02T05:49:34;96650.28;;;6.48;100.00
3812;BME280;1921;49.368;11.068;2024-03-02T05:52:00;96561.75;;;5.92;100.00
3812;BME280;1921;49.368;11.068;2024-03-02T05:54:25;96629.16;;;6.37;100.00
3812;BME280;1921;49.368;11.068;2024-03-02T05:56:51;96602.09;;;6.25;100.00
3812;BME280;1921;49.368;11.068;2024-03-02T05:59:17;96571.50;;;6.05;100.00
3812;BME280;1921;49.368;11.068;2024-03-02T06:01:45;96676.31;;;6.70;100.00
3812;BME280;1921;49.368;11.068;2024-03-02T06:04:13;96550.53;;;6.00;100.00
3812;BME280;1921;49.368;11.068;2024-03-02T06:06:39;96605.97;;;6.43;100.00
3812;BME280;1921;49.368;11.068;2024-03-02T06:09:06;96615.72;;;6.41;100.00
3812;BME280;1921;49.368;11.068;2024-03-02T06:11:38;96569.22;;;6.10;100.00
3812;BME280;1921;49.368;11.068;2024-03-02T06:14:05;96495.56;;;5.75;100.00
3812;BME280;1921;49.368;11.068;2024-03-02T06:16:32;96616.50;;;6.42;100.00
3812;BME280;1921;49.368;11.068;2024-03-02T06:18:58;96639.41;;;6.68;100.00
3812;BME280;1921;49.368;11.068;2024-03-02T06:21:25;96527.25;;;6.00;100.00
3812;BME280;1921;49.368;11.068;2024-03-02T06:23:51;96594.47;;;6.46;100.00
3812;BME280;1921;49.368;11.068;2024-03-02T06:26:17;96622.59;;;6.64;100.00
3812;BME280;1921;49.368;11.068;2024-03-02T06:28:44;96644.88;;;6.73;100.00
3812;BME280;1921;49.368;11.068;2024-03-02T06:31:10;96597.47;;;6.35;100.00
3812;BME280;1921;49.368;11.068;2024-03-02T06:33:36;96675.19;;;6.87;100.00
3812;BME280;1921;49.368;11.068;2024-03-02T06:36:02;96587.97;;;6.27;100.00
3812;BME280;1921;49.368;11.068;2024-03-02T06:38:28;96599.72;;;6.38;100.00
3812;BME280;1921;49.368;11.068;2024-03-02T06:40:54;96625.66;;;6.67;100.00
3812;BME280;1921;49.368;11.068;2024-03-02T06:43:21;96675.91;;;6.96;100.00
3812;BME280;1921;49.368;11.068;2024-03-02T06:45:51;96508.31;;;6.00;100.00
3812;BME280;1921;49.368;11.068;2024-03-02T06:48:17;96653.56;;;6.95;100.00
3812;BME280;1921;49.368;11.068;2024-03-02T06:50:46;96590.81;;;6.70;100.00
3812;BME280;1921;49.368;11.068;2024-03-02T06:53:13;96610.91;;;6.83;100.00
3812;BME280;1921;49.368;11.068;2024-03-02T06:55:39;96580.81;;;6.82;100.00
3812;BME280;1921;49.368;11.068;2024-03-02T06:58:05;96570.09;;;6.85;100.00
3812;BME280;1921;49.368;11.068;2024-03-02T07:00:31;96567.78;;;6.90;100.00
3812;BME280;1921;49.368;11.068;2024-03-02T07:02:56;96567.94;;;6.88;100.00
3812;BME280;1921;49.368;11.068;2024-03-02T07:05:22;96588.75;;;7.24;100.00
3812;BME280;1921;49.368;11.068;2024-03-02T07:07:48;96621.53;;;7.47;100.00
3812;BME280;1921;49.368;11.068;2024-03-02T07:10:16;96658.91;;;7.89;100.00
3812;BME280;1921;49.368;11.068;2024-03-02T07:12:42;96603.88;;;7.57;100.00
3812;BME280;1921;49.368;11.068;2024-03-02T07:15:08;96607.97;;;7.88;100.00
3812;BME280;1921;49.368;11.068;2024-03-02T07:17:47;96579.94;;;7.98;100.00
3812;BME280;1921;49.368;11.068;2024-03-02T07:20:13;96616.19;;;8.34;100.00
3812;BME280;1921;49.368;11.068;2024-03-02T07:22:38;96597.13;;;8.20;100.00
3812;BME280;1921;49.368;11.068;2024-03-02T07:25:05;96641.94;;;8.50;100.00
3812;BME280;1921;49.368;11.068;2024-03-02T07:27:32;96592.69;;;8.63;100.00
3812;BME280;1921;49.368;11.068;2024-03-02T07:29:59;96620.88;;;8.95;100.00
3812;BME280;1921;49.368;11.068;2024-03-02T07:32:25;96602.56;;;9.16;100.00
3812;BME280;1921;49.368;11.068;2024-03-02T07:34:50;96621.94;;;9.55;98.59
3812;BME280;1921;49.368;11.068;2024-03-02T07:37:17;96592.25;;;9.42;93.12
3812;BME280;1921;49.368;11.068;2024-03-02T07:39:44;96683.19;;;10.18;93.65
3812;BME280;1921;49.368;11.068;2024-03-02T07:42:10;96637.94;;;10.19;94.24
3812;BME280;1921;49.368;11.068;2024-03-02T07:44:36;96574.16;;;9.89;92.87
3812;BME280;1921;49.368;11.068;2024-03-02T07:47:02;96564.72;;;9.75;87.79
3812;BME280;1921;49.368;11.068;2024-03-02T07:49:28;96488.16;;;9.36;88.26
3812;BME280;1921;49.368;11.068;2024-03-02T07:51:54;96661.44;;;10.52;87.92
3812;BME280;1921;49.368;11.068;2024-03-02T07:54:19;96602.09;;;10.35;87.93
3812;BME280;1921;49.368;11.068;2024-03-02T07:56:45;96687.09;;;10.95;84.96
3812;BME280;1921;49.368;11.068;2024-03-02T07:59:11;96653.22;;;10.75;84.23
3812;BME280;1921;49.368;11.068;2024-03-02T08:01:37;96649.19;;;10.60;81.97
3812;BME280;1921;49.368;11.068;2024-03-02T08:04:03;96660.03;;;10.43;83.49
3812;BME280;1921;49.368;11.068;2024-03-02T08:06:30;96560.47;;;9.60;84.43
3812;BME280;1921;49.368;11.068;2024-03-02T08:09:00;96616.06;;;10.14;83.36
3812;BME280;1921;49.368;11.068;2024-03-02T08:11:27;96522.25;;;9.61;83.28
3812;BME280;1921;49.368;11.068;2024-03-02T08:13:53;96669.06;;;10.54;84.38
3812;BME280;1921;49.368;11.068;2024-03-02T08:16:22;96680.31;;;10.74;84.85
3812;BME280;1921;49.368;11.068;2024-03-02T08:18:49;96625.31;;;10.23;84.16
3812;BME280;1921;49.368;11.068;2024-03-02T08:21:15;96656.00;;;10.34;84.34
3812;BME280;1921;49.368;11.068;2024-03-02T08:23:42;96634.16;;;10.42;83.49
3812;BME280;1921;49.368;11.068;2024-03-02T08:26:09;96613.94;;;10.50;81.51
3812;BME280;1921;49.368;11.068;2024-03-02T08:28:35;96649.00;;;10.88;80.02
3812;BME280;1921;49.368;11.068;2024-03-02T08:31:06;96624.50;;;10.89;80.27
3812;BME280;1921;49.368;11.068;2024-03-02T08:33:32;96678.84;;;11.12;80.42
3812;BME280;1921;49.368;11.068;2024-03-02T08:35:58;96607.06;;;10.83;81.62
3812;BME280;1921;49.368;11.068;2024-03-02T08:38:25;96642.66;;;11.35;79.48
3812;BME280;1921;49.368;11.068;2024-03-02T08:40:50;96678.66;;;11.78;77.43
3812;BME280;1921;49.368;11.068;2024-03-02T08:43:17;96578.47;;;11.21;76.90
3812;BME280;1921;49.368;11.068;2024-03-02T08:45:44;96684.69;;;11.85;75.68
3812;BME280;1921;49.368;11.068;2024-03-02T08:48:10;96700.22;;;12.18;75.87
3812;BME280;1921;49.368;11.068;2024-03-02T08:50:36;96556.31;;;11.43;75.42
3812;BME280;1921;49.368;11.068;2024-03-02T08:53:04;96652.97;;;11.81;75.02
3812;BME280;1921;49.368;11.068;2024-03-02T08:55:30;96672.41;;;12.30;74.35
3812;BME280;1921;49.368;11.068;2024-03-02T08:57:56;96563.16;;;11.76;72.36
3812;BME280;1921;49.368;11.068;2024-03-02T09:00:22;96615.13;;;12.22;69.97
3812;BME280;1921;49.368;11.068;2024-03-02T09:02:48;96619.16;;;12.50;71.61
3812;BME280;1921;49.368;11.068;2024-03-02T09:05:14;96670.38;;;13.07;69.26
3812;BME280;1921;49.368;11.068;2024-03-02T09:07:40;96651.75;;;13.15;68.55
3812;BME280;1921;49.368;11.068;2024-03-02T09:10:09;96698.38;;;13.68;66.66
3812;BME280;1921;49.368;11.068;2024-03-02T09:12:35;96624.97;;;13.38;65.35
3812;BME280;1921;49.368;11.068;2024-03-02T09:15:02;96565.16;;;12.80;66.21
3812;BME280;1921;49.368;11.068;2024-03-02T09:17:29;96670.28;;;13.39;67.61
3812;BME280;1921;49.368;11.068;2024-03-02T09:19:55;96604.16;;;12.63;67.76
3812;BME280;1921;49.368;11.068;2024-03-02T09:22:21;96654.22;;;12.92;67.58
3812;BME280;1921;49.368;11.068;2024-03-02T09:24:47;96578.50;;;12.72;66.52
3812;BME280;1921;49.368;11.068;2024-03-02T09:27:13;96627.41;;;13.15;66.72
3812;BME280;1921;49.368;11.068;2024-03-02T09:29:38;96531.63;;;12.71;65.61
3812;BME280;1921;49.368;11.068;2024-03-02T09:34:32;96554.41;;;12.88;64.14
3812;BME280;1921;49.368;11.068;2024-03-02T09:36:58;96520.38;;;12.88;64.83
3812;BME280;1921;49.368;11.068;2024-03-02T09:39:24;96603.41;;;13.73;63.58
3812;BME280;1921;49.368;11.068;2024-03-02T09:41:53;96646.84;;;13.62;63.96
3812;BME280;1921;49.368;11.068;2024-03-02T09:44:20;96678.25;;;14.29;63.66
3812;BME280;1921;49.368;11.068;2024-03-02T09:46:49;96597.72;;;13.58;64.95
3812;BME280;1921;49.368;11.068;2024-03-02T09:49:15;96653.97;;;14.34;63.67
3812;BME280;1921;49.368;11.068;2024-03-02T09:51:41;96632.41;;;14.32;61.53
3812;BME280;1921;49.368;11.068;2024-03-02T09:54:10;96618.22;;;14.63;60.56
3812;BME280;1921;49.368;11.068;2024-03-02T09:56:36;96650.56;;;14.45;62.99
3812;BME280;1921;49.368;11.068;2024-03-02T09:59:01;96554.88;;;14.24;59.72
3812;BME280;1921;49.368;11.068;2024-03-02T10:01:27;96644.59;;;14.79;59.61
3812;BME280;1921;49.368;11.068;2024-03-02T10:03:53;96593.13;;;14.67;57.75
3812;BME280;1921;49.368;11.068;2024-03-02T10:06:23;96622.78;;;15.02;57.61
3812;BME280;1921;49.368;11.068;2024-03-02T10:08:49;96631.91;;;15.23;57.14
3812;BME280;1921;49.368;11.068;2024-03-02T10:11:32;96647.31;;;15.43;56.61
3812;BME280;1921;49.368;11.068;2024-03-02T10:14:11;96614.16;;;15.66;55.93
3812;BME280;1921;49.368;11.068;2024-03-02T10:16:40;96667.06;;;15.98;56.19
3812;BME280;1921;49.368;11.068;2024-03-02T10:21:52;96638.53;;;15.26;56.86
3812;BME280;1921;49.368;11.068;2024-03-02T10:24:20;96642.25;;;15.53;56.13
3812;BME280;1921;49.368;11.068;2024-03-02T10:26:46;96646.94;;;15.51;55.60
3812;BME280;1921;49.368;11.068;2024-03-02T10:29:12;96622.53;;;15.27;56.17
3812;BME280;1921;49.368;11.068;2024-03-02T10:31:40;96504.13;;;14.18;57.16
3812;BME280;1921;49.368;11.068;2024-03-02T10:34:07;96552.91;;;14.19;57.86
3812;BME280;1921;49.368;11.068;2024-03-02T10:36:37;96603.44;;;14.38;58.89
3812;BME280;1921;49.368;11.068;2024-03-02T10:39:04;96607.28;;;14.54;58.69
3812;BME280;1921;49.368;11.068;2024-03-02T10:41:38;96613.78;;;14.63;58.76
3812;BME280;1921;49.368;11.068;2024-03-02T10:44:06;96641.84;;;14.74;58.29
3812;BME280;1921;49.368;11.068;2024-03-02T10:46:34;96634.50;;;14.41;59.46
3812;BME280;1921;49.368;11.068;2024-03-02T10:49:02;96580.63;;;14.27;59.86
3812;BME280;1921;49.368;11.068;2024-03-02T10:51:31;96631.13;;;14.76;59.88
3812;BME280;1921;49.368;11.068;2024-03-02T10:53:59;96603.06;;;14.88;59.80
3812;BME280;1921;49.368;11.068;2024-03-02T10:56:31;96636.84;;;14.61;60.32
3812;BME280;1921;49.368;11.068;2024-03-02T10:59:16;96595.47;;;14.45;59.71
3812;BME280;1921;49.368;11.068;2024-03-02T11:01:47;96516.63;;;13.93;60.04
3812;BME280;1921;49.368;11.068;2024-03-02T11:04:17;96640.38;;;14.67;59.82
3812;BME280;1921;49.368;11.068;2024-03-02T11:06:49;96540.72;;;14.37;58.11
3812;BME280;1921;49.368;11.068;2024-03-02T11:09:19;96619.47;;;14.84;57.78
3812;BME280;1921;49.368;11.068;2024-03-02T11:12:03;96556.53;;;14.60;57.69
3812;BME280;1921;49.368;11.068;2024-03-02T11:14:31;96558.56;;;14.58;57.58
3812;BME280;1921;49.368;11.068;2024-03-02T11:17:03;96616.75;;;14.90;57.86
3812;BME280;1921;49.368;11.068;2024-03-02T11:19:30;96498.31;;;14.16;56.69
3812;BME280;1921;49.368;11.068;2024-03-02T11:21:56;96507.75;;;14.06;57.28
3812;BME280;1921;49.368;11.068;2024-03-02T11:26:53;96537.31;;;14.24;57.82
3812;BME280;1921;49.368;11.068;2024-03-02T11:32:13;96573.63;;;13.97;59.07
3812;BME280;1921;49.368;11.068;2024-03-02T11:34:42;96564.00;;;13.80;59.89
3812;BME280;1921;49.368;11.068;2024-03-02T11:37:19;96573.88;;;14.08;59.14
3812;BME280;1921;49.368;11.068;2024-03-02T11:39:50;96573.00;;;14.37;57.65
3812;BME280;1921;49.368;11.068;2024-03-02T11:42:16;96577.03;;;14.63;57.42
3812;BME280;1921;49.368;11.068;2024-03-02T11:44:46;96565.06;;;14.67;57.25
3812;BME280;1921;49.368;11.068;2024-03-02T11:47:15;96607.28;;;15.01;56.85
3812;BME280;1921;49.368;11.068;2024-03-02T11:49:46;96532.19;;;14.53;56.92
3812;BME280;1921;49.368;11.068;2024-03-02T11:52:15;96511.88;;;14.37;56.98
3812;BME280;1921;49.368;11.068;2024-03-02T11:54:46;96464.34;;;13.98;57.54
3812;BME280;1921;49.368;11.068;2024-03-02T11:57:15;96518.66;;;13.91;59.32
3812;BME280;1921;49.368;11.068;2024-03-02T11:59:41;96564.66;;;14.40;58.63
3812;BME280;1921;49.368;11.068;2024-03-02T12:02:15;96555.09;;;14.46;57.83
3812;BME280;1921;49.368;11.068;2024-03-02T12:04:42;96497.59;;;14.09;57.35
3812;BME280;1921;49.368;11.068;2024-03-02T12:07:09;96596.22;;;14.99;56.74
3812;BME280;1921;49.368;11.068;2024-03-02T12:09:36;96618.09;;;15.28;55.03
3812;BME280;1921;49.368;11.068;2024-03-02T12:12:09;96576.00;;;15.40;54.79
3812;BME280;1921;49.368;11.068;2024-03-02T12:14:38;96601.78;;;15.95;54.33
3812;BME280;1921;49.368;11.068;2024-03-02T12:17:05;96539.44;;;15.50;53.05
3812;BME280;1921;49.368;11.068;2024-03-02T12:19:32;96522.03;;;14.92;53.91
3812;BME280;1921;49.368;11.068;2024-03-02T12:21:59;96604.19;;;15.04;54.60
3812;BME280;1921;49.368;11.068;2024-03-02T12:24:29;96445.84;;;13.93;55.29
3812;BME280;1921;49.368;11.068;2024-03-02T12:26:56;96502.50;;;14.41;55.31
3812;BME280;1921;49.368;11.068;2024-03-02T12:29:22;96524.75;;;14.26;56.18
3812;BME280;1921;49.368;11.068;2024-03-02T12:31:49;96542.50;;;14.01;56.49
3812;BME280;1921;49.368;11.068;2024-03-02T12:34:26;96518.56;;;14.09;56.02
3812;BME280;1921;49.368;11.068;2024-03-02T12:36:55;96378.66;;;13.03;56.26
3812;BME280;1921;49.368;11.068;2024-03-02T12:39:20;96407.50;;;13.45;56.61
3812;BME280;1921;49.368;11.068;2024-03-02T12:41:49;96577.84;;;14.87;56.53
3812;BME280;1921;49.368;11.068;2024-03-02T12:44:19;96480.53;;;14.18;55.21
3812;BME280;1921;49.368;11.068;2024-03-02T12:46:46;96585.09;;;15.08;55.71
3812;BME280;1921;49.368;11.068;2024-03-02T12:49:14;96559.09;;;14.84;54.99
3812;BME280;1921;49.368;11.068;2024-03-02T12:51:44;96514.63;;;14.77;55.17
3812;BME280;1921;49.368;11.068;2024-03-02T12:54:14;96482.59;;;14.51;54.64
3812;BME280;1921;49.368;11.068;2024-03-02T12:56:41;96526.28;;;15.21;53.88
3812;BME280;1921;49.368;11.068;2024-03-02T12:59:24;96432.91;;;14.85;52.90
3812;BME280;1921;49.368;11.068;2024-03-02T13:01:55;96415.44;;;13.92;55.22
3812;BME280;1921;49.368;11.068;2024-03-02T13:04:31;96419.28;;;14.36;54.57
3812;BME280;1921;49.368;11.068;2024-03-02T13:06:57;96475.28;;;14.42;55.31
3812;BME280;1921;49.368;11.068;2024-03-02T13:09:26;96558.03;;;15.60;53.02
3812;BME280;1921;49.368;11.068;2024-03-02T13:11:54;96267.09;;;14.60;51.13
3812;BME280;1921;49.368;11.068;2024-03-02T13:14:22;96433.41;;;15.89;50.38
3812;BME280;1921;49.368;11.068;2024-03-02T13:16:50;96491.00;;;16.58;49.43
3812;BME280;1921;49.368;11.068;2024-03-02T13:19:18;96446.63;;;16.89;48.16
3812;BME280;1921;49.368;11.068;2024-03-02T13:21:47;96532.34;;;17.94;48.00
3812;BME280;1921;49.368;11.068;2024-03-02T13:24:12;96460.91;;;17.42;48.07
3812;BME280;1921;49.368;11.068;2024-03-02T13:26:38;96373.81;;;17.27;46.60